sensor_id;sensor_type;location;lat;lon;timestamp;temperature;humidity
23081;DHT22;11708;50.570;8.532;2022-09-24T00:00:43;10.90;99.90
23081;DHT22;11708;50.570;8.532;2022-09-24T00:03:09;10.90;99.90
23081;DHT22;11708;50.570;8.532;2022-09-24T00:05:39;10.90;99.90
23081;DHT22;11708;50.570;8.532;2022-09-24T00:08:06;10.90;99.90
23081;DHT22;11708;50.570;8.532;2022-09-24T00:10:36;10.90;99.90
23081;DHT22;11708;50.570;8.532;2022-09-24T00:13:03;10.90;99.90
23081;DHT22;11708;50.570;8.532;2022-09-24T00:15:29;10.90;99.90
23081;DHT22;11708;50.570;8.532;2022-09-24T00:17:55;10.80;99.90
23081;DHT22;11708;50.570;8.532;2022-09-24T00:20:21;10.80;99.90
23081;DHT22;11708;50.570;8.532;2022-09-24T00:22:47;10.80;99.90
23081;DHT22;11708;50.570;8.532;2022-09-24T00:25:12;10.80;99.90
23081;DHT22;11708;50.570;8.532;2022-09-24T00:27:56;10.80;99.90
23081;DHT22;11708;50.570;8.532;2022-09-24T00:30:22;10.70;99.90
23081;DHT22;11708;50.570;8.532;2022-09-24T00:32:47;10.70;99.90
23081;DHT22;11708;50.570;8.532;2022-09-24T00:35:14;10.70;99.90
23081;DHT22;11708;50.570;8.532;2022-09-24T00:37:39;10.60;99.90
23081;DHT22;11708;50.570;8.532;2022-09-24T00:40:05;10.60;99.90
23081;DHT22;11708;50.570;8.532;2022-09-24T00:42:31;10.60;99.90
23081;DHT22;11708;50.570;8.532;2022-09-24T00:44:57;10.60;99.90
23081;DHT22;11708;50.570;8.532;2022-09-24T00:52:56;10.60;99.90
23081;DHT22;11708;50.570;8.532;2022-09-24T00:55:24;10.60;99.90
23081;DHT22;11708;50.570;8.532;2022-09-24T00:57:55;10.60;99.90
23081;DHT22;11708;50.570;8.532;2022-09-24T01:00:21;10.60;99.90
23081;DHT22;11708;50.570;8.532;2022-09-24T01:02:49;10.60;99.90
23081;DHT22;11708;50.570;8.532;2022-09-24T01:05:15;10.50;99.90
23081;DHT22;11708;50.570;8.532;2022-09-24T01:07:42;10.50;99.90
23081;DHT22;11708;50.570;8.532;2022-09-24T01:10:08;10.60;99.90
23081;DHT22;11708;50.570;8.532;2022-09-24T01:12:52;10.50;99.90
23081;DHT22;11708;50.570;8.532;2022-09-24T01:15:33;10.60;99.90
23081;DHT22;11708;50.570;8.532;2022-09-24T01:18:08;10.60;99.90
23081;DHT22;11708;50.570;8.532;2022-09-24T01:21:08;10.60;99.90
23081;DHT22;11708;50.570;8.532;2022-09-24T01:23:56;10.50;99.90
23081;DHT22;11708;50.570;8.532;2022-09-24T01:32:55;10.50;99.90
23081;DHT22;11708;50.570;8.532;2022-09-24T01:38:11;10.50;99.90
23081;DHT22;11708;50.570;8.532;2022-09-24T01:40:38;10.50;99.90
23081;DHT22;11708;50.570;8.532;2022-09-24T01:43:06;10.50;99.90
23081;DHT22;11708;50.570;8.532;2022-09-24T01:45:34;10.50;99.90
23081;DHT22;11708;50.570;8.532;2022-09-24T01:48:03;10.50;99.90
23081;DHT22;11708;50.570;8.532;2022-09-24T01:50:32;10.50;99.90
23081;DHT22;11708;50.570;8.532;2022-09-24T01:53:00;10.50;99.90
23081;DHT22;11708;50.570;8.532;2022-09-24T01:55:30;10.40;99.90
23081;DHT22;11708;50.570;8.532;2022-09-24T01:58:07;10.40;99.90
23081;DHT22;11708;50.570;8.532;2022-09-24T02:00:38;10.40;99.90
23081;DHT22;11708;50.570;8.532;2022-09-24T02:03:30;10.30;99.90
23081;DHT22;11708;50.570;8.532;2022-09-24T02:06:01;10.30;99.90
23081;DHT22;11708;50.570;8.532;2022-09-24T02:08:47;10.40;99.90
23081;DHT22;11708;50.570;8.532;2022-09-24T02:11:22;10.20;99.90
23081;DHT22;11708;50.570;8.532;2022-09-24T02:16:17;10.20;99.90
23081;DHT22;11708;50.570;8.532;2022-09-24T02:18:47;10.10;99.90
23081;DHT22;11708;50.570;8.532;2022-09-24T02:21:15;10.10;99.90
23081;DHT22;11708;50.570;8.532;2022-09-24T02:23:48;10.10;99.90
23081;DHT22;11708;50.570;8.532;2022-09-24T02:26:15;10.00;99.90
23081;DHT22;11708;50.570;8.532;2022-09-24T02:28:42;10.10;99.90
23081;DHT22;11708;50.570;8.532;2022-09-24T02:31:11;10.00;99.90
23081;DHT22;11708;50.570;8.532;2022-09-24T02:33:41;10.00;99.90
23081;DHT22;11708;50.570;8.532;2022-09-24T02:36:27;10.00;99.90
23081;DHT22;11708;50.570;8.532;2022-09-24T02:38:53;9.80;99.90
23081;DHT22;11708;50.570;8.532;2022-09-24T02:41:20;9.90;99.90
23081;DHT22;11708;50.570;8.532;2022-09-24T02:43:48;9.90;99.90
23081;DHT22;11708;50.570;8.532;2022-09-24T02:46:14;9.90;99.90
23081;DHT22;11708;50.570;8.532;2022-09-24T02:48:40;9.90;99.90
23081;DHT22;11708;50.570;8.532;2022-09-24T02:51:06;9.90;99.90
23081;DHT22;11708;50.570;8.532;2022-09-24T02:53:32;9.90;99.90
23081;DHT22;11708;50.570;8.532;2022-09-24T02:55:58;9.90;99.90
23081;DHT22;11708;50.570;8.532;2022-09-24T02:58:25;9.80;99.90
23081;DHT22;11708;50.570;8.532;2022-09-24T03:00:51;9.80;99.90
23081;DHT22;11708;50.570;8.532;2022-09-24T03:03:17;9.80;99.90
23081;DHT22;11708;50.570;8.532;2022-09-24T03:05:43;9.70;99.90
23081;DHT22;11708;50.570;8.532;2022-09-24T03:08:10;9.70;99.90
23081;DHT22;11708;50.570;8.532;2022-09-24T03:10:35;9.70;99.90
23081;DHT22;11708;50.570;8.532;2022-09-24T03:13:01;9.70;99.90
23081;DHT22;11708;50.570;8.532;2022-09-24T03:15:26;9.60;99.90
23081;DHT22;11708;50.570;8.532;2022-09-24T03:17:54;9.50;99.90
23081;DHT22;11708;50.570;8.532;2022-09-24T03:20:19;9.50;99.90
23081;DHT22;11708;50.570;8.532;2022-09-24T03:22:49;9.40;99.90
23081;DHT22;11708;50.570;8.532;2022-09-24T03:25:16;9.40;99.90
23081;DHT22;11708;50.570;8.532;2022-09-24T03:27:41;9.40;99.90
23081;DHT22;11708;50.570;8.532;2022-09-24T03:30:07;9.30;99.90
23081;DHT22;11708;50.570;8.532;2022-09-24T03:32:51;9.30;99.90
23081;DHT22;11708;50.570;8.532;2022-09-24T03:37:44;9.20;99.90
23081;DHT22;11708;50.570;8.532;2022-09-24T03:40:10;9.10;99.90
23081;DHT22;11708;50.570;8.532;2022-09-24T03:42:36;9.10;99.90
23081;DHT22;11708;50.570;8.532;2022-09-24T03:45:02;9.10;99.90
23081;DHT22;11708;50.570;8.532;2022-09-24T03:47:28;9.00;99.90
23081;DHT22;11708;50.570;8.532;2022-09-24T03:49:56;8.90;99.90
23081;DHT22;11708;50.570;8.532;2022-09-24T03:52:22;9.00;99.90
23081;DHT22;11708;50.570;8.532;2022-09-24T03:54:48;8.90;99.90
23081;DHT22;11708;50.570;8.532;2022-09-24T03:57:20;8.90;99.90
23081;DHT22;11708;50.570;8.532;2022-09-24T03:59:47;8.90;99.90
23081;DHT22;11708;50.570;8.532;2022-09-24T04:02:13;8.80;99.90
23081;DHT22;11708;50.570;8.532;2022-09-24T04:04:38;8.80;99.90
23081;DHT22;11708;50.570;8.532;2022-09-24T04:07:04;8.80;99.90
23081;DHT22;11708;50.570;8.532;2022-09-24T04:09:30;8.80;99.90
23081;DHT22;11708;50.570;8.532;2022-09-24T04:11:56;8.70;99.90
23081;DHT22;11708;50.570;8.532;2022-09-24T04:14:24;8.70;99.90
23081;DHT22;11708;50.570;8.532;2022-09-24T04:16:49;8.70;99.90
23081;DHT22;11708;50.570;8.532;2022-09-24T04:19:15;8.70;99.90
23081;DHT22;11708;50.570;8.532;2022-09-24T04:21:47;8.70;99.90
23081;DHT22;11708;50.570;8.532;2022-09-24T04:24:12;8.70;99.90
23081;DHT22;11708;50.570;8.532;2022-09-24T04:26:38;8.70;99.90
23081;DHT22;11708;50.570;8.532;2022-09-24T04:29:04;8.70;99.90
23081;DHT22;11708;50.570;8.532;2022-09-24T04:31:30;8.70;99.90
23081;DHT22;11708;50.570;8.532;2022-09-24T04:33:57;8.70;99.90
23081;DHT22;11708;50.570;8.532;2022-09-24T04:36:23;8.80;99.90
23081;DHT22;11708;50.570;8.532;2022-09-24T04:38:49;8.70;99.90
23081;DHT22;11708;50.570;8.532;2022-09-24T04:41:15;8.70;99.90
23081;DHT22;11708;50.570;8.532;2022-09-24T04:43:41;8.70;99.90
23081;DHT22;11708;50.570;8.532;2022-09-24T04:46:07;8.70;99.90
23081;DHT22;11708;50.570;8.532;2022-09-24T04:48:34;8.90;99.90
23081;DHT22;11708;50.570;8.532;2022-09-24T04:51:06;8.70;99.90
23081;DHT22;11708;50.570;8.532;2022-09-24T04:53:32;8.70;99.90
23081;DHT22;11708;50.570;8.532;2022-09-24T04:55:58;8.50;99.90
23081;DHT22;11708;50.570;8.532;2022-09-24T04:58:25;8.80;99.90
23081;DHT22;11708;50.570;8.532;2022-09-24T05:00:51;8.60;99.90
23081;DHT22;11708;50.570;8.532;2022-09-24T05:03:17;8.90;99.90
23081;DHT22;11708;50.570;8.532;2022-09-24T05:05:46;8.60;99.90
23081;DHT22;11708;50.570;8.532;2022-09-24T05:10:38;8.60;99.90
23081;DHT22;11708;50.570;8.532;2022-09-24T05:13:04;8.60;99.90
23081;DHT22;11708;50.570;8.532;2022-09-24T05:15:30;8.60;99.90
23081;DHT22;11708;50.570;8.532;2022-09-24T05:17:55;8.60;99.90
23081;DHT22;11708;50.570;8.532;2022-09-24T05:20:21;8.60;99.90
23081;DHT22;11708;50.570;8.532;2022-09-24T05:22:48;8.60;99.90
23081;DHT22;11708;50.570;8.532;2022-09-24T05:25:15;8.60;99.90
23081;DHT22;11708;50.570;8.532;2022-09-24T05:27:51;8.60;99.90
23081;DHT22;11708;50.570;8.532;2022-09-24T05:30:18;8.60;99.90
23081;DHT22;11708;50.570;8.532;2022-09-24T05:32:45;8.60;99.90
23081;DHT22;11708;50.570;8.532;2022-09-24T05:35:14;8.60;99.90
23081;DHT22;11708;50.570;8.532;2022-09-24T05:37:39;8.60;99.90
23081;DHT22;11708;50.570;8.532;2022-09-24T05:40:06;8.60;99.90
23081;DHT22;11708;50.570;8.532;2022-09-24T05:42:50;8.60;99.90
23081;DHT22;11708;50.570;8.532;2022-09-24T05:45:17;8.60;99.90
23081;DHT22;11708;50.570;8.532;2022-09-24T05:47:46;8.60;99.90
23081;DHT22;11708;50.570;8.532;2022-09-24T05:50:13;8.60;99.90
23081;DHT22;11708;50.570;8.532;2022-09-24T05:52:39;8.60;99.90
23081;DHT22;11708;50.570;8.532;2022-09-24T05:55:06;8.60;99.90
23081;DHT22;11708;50.570;8.532;2022-09-24T05:57:33;8.60;99.90
23081;DHT22;11708;50.570;8.532;2022-09-24T05:59:58;8.60;99.90
23081;DHT22;11708;50.570;8.532;2022-09-24T06:02:24;8.60;99.90
23081;DHT22;11708;50.570;8.532;2022-09-24T06:04:50;8.60;99.90
23081;DHT22;11708;50.570;8.532;2022-09-24T06:07:15;8.60;99.90
23081;DHT22;11708;50.570;8.532;2022-09-24T06:09:41;8.70;99.90
23081;DHT22;11708;50.570;8.532;2022-09-24T06:12:07;8.70;99.90
23081;DHT22;11708;50.570;8.532;2022-09-24T06:14:32;8.70;99.90
23081;DHT22;11708;50.570;8.532;2022-09-24T06:16:58;8.70;99.90
23081;DHT22;11708;50.570;8.532;2022-09-24T06:19:24;8.70;99.90
23081;DHT22;11708;50.570;8.532;2022-09-24T06:21:49;8.70;99.90
23081;DHT22;11708;50.570;8.532;2022-09-24T06:24:15;8.80;99.90
23081;DHT22;11708;50.570;8.532;2022-09-24T06:26:40;8.80;99.90
23081;DHT22;11708;50.570;8.532;2022-09-24T06:29:06;8.90;99.90
23081;DHT22;11708;50.570;8.532;2022-09-24T06:31:32;9.00;99.90
23081;DHT22;11708;50.570;8.532;2022-09-24T06:33:59;9.00;99.90
23081;DHT22;11708;50.570;8.532;2022-09-24T06:36:27;9.00;99.90
23081;DHT22;11708;50.570;8.532;2022-09-24T06:38:53;9.70;99.90
23081;DHT22;11708;50.570;8.532;2022-09-24T06:41:19;9.10;99.90
23081;DHT22;11708;50.570;8.532;2022-09-24T06:43:46;9.20;99.90
23081;DHT22;11708;50.570;8.532;2022-09-24T06:46:11;9.30;99.90
23081;DHT22;11708;50.570;8.532;2022-09-24T06:48:38;9.40;99.90
23081;DHT22;11708;50.570;8.532;2022-09-24T06:51:04;9.40;99.90
23081;DHT22;11708;50.570;8.532;2022-09-24T06:53:30;9.50;99.90
23081;DHT22;11708;50.570;8.532;2022-09-24T06:55:56;9.60;99.90
23081;DHT22;11708;50.570;8.532;2022-09-24T06:58:28;9.80;99.90
23081;DHT22;11708;50.570;8.532;2022-09-24T07:00:58;9.70;99.90
23081;DHT22;11708;50.570;8.532;2022-09-24T07:03:26;9.80;99.90
23081;DHT22;11708;50.570;8.532;2022-09-24T07:05:52;9.90;99.90
23081;DHT22;11708;50.570;8.532;2022-09-24T07:08:18;9.90;99.90
23081;DHT22;11708;50.570;8.532;2022-09-24T07:10:44;9.90;99.90
23081;DHT22;11708;50.570;8.532;2022-09-24T07:13:12;10.00;99.90
23081;DHT22;11708;50.570;8.532;2022-09-24T07:15:38;10.00;99.90
23081;DHT22;11708;50.570;8.532;2022-09-24T07:18:03;10.10;99.90
23081;DHT22;11708;50.570;8.532;2022-09-24T07:20:29;10.10;99.90
23081;DHT22;11708;50.570;8.532;2022-09-24T07:22:54;10.20;99.90
23081;DHT22;11708;50.570;8.532;2022-09-24T07:25:20;10.20;99.90
23081;DHT22;11708;50.570;8.532;2022-09-24T07:27:46;10.20;99.90
23081;DHT22;11708;50.570;8.532;2022-09-24T07:30:12;10.40;99.90
23081;DHT22;11708;50.570;8.532;2022-09-24T07:32:37;10.30;99.90
23081;DHT22;11708;50.570;8.532;2022-09-24T07:35:03;10.50;99.90
23081;DHT22;11708;50.570;8.532;2022-09-24T07:37:29;10.60;99.90
23081;DHT22;11708;50.570;8.532;2022-09-24T07:39:58;10.60;99.90
23081;DHT22;11708;50.570;8.532;2022-09-24T07:42:23;10.70;99.90
23081;DHT22;11708;50.570;8.532;2022-09-24T07:44:49;10.80;99.90
23081;DHT22;11708;50.570;8.532;2022-09-24T07:47:15;10.90;99.90
23081;DHT22;11708;50.570;8.532;2022-09-24T07:49:41;11.00;99.90
23081;DHT22;11708;50.570;8.532;2022-09-24T07:52:08;11.10;99.90
23081;DHT22;11708;50.570;8.532;2022-09-24T07:54:34;11.20;99.90
23081;DHT22;11708;50.570;8.532;2022-09-24T07:57:00;11.30;99.90
23081;DHT22;11708;50.570;8.532;2022-09-24T07:59:27;11.40;99.90
23081;DHT22;11708;50.570;8.532;2022-09-24T08:01:52;11.50;99.90
23081;DHT22;11708;50.570;8.532;2022-09-24T08:04:18;11.60;99.90
23081;DHT22;11708;50.570;8.532;2022-09-24T08:06:44;11.70;99.90
23081;DHT22;11708;50.570;8.532;2022-09-24T08:09:10;11.90;99.90
23081;DHT22;11708;50.570;8.532;2022-09-24T08:11:36;12.10;99.90
23081;DHT22;11708;50.570;8.532;2022-09-24T08:14:01;12.20;99.90
23081;DHT22;11708;50.570;8.532;2022-09-24T08:16:27;12.30;99.90
23081;DHT22;11708;50.570;8.532;2022-09-24T08:18:53;12.50;99.90
23081;DHT22;11708;50.570;8.532;2022-09-24T08:21:19;12.70;99.90
23081;DHT22;11708;50.570;8.532;2022-09-24T08:23:44;12.80;99.90
23081;DHT22;11708;50.570;8.532;2022-09-24T08:26:11;13.00;99.90
23081;DHT22;11708;50.570;8.532;2022-09-24T08:28:38;13.40;99.90
23081;DHT22;11708;50.570;8.532;2022-09-24T08:31:10;13.30;99.90
23081;DHT22;11708;50.570;8.532;2022-09-24T08:33:37;13.40;99.90
23081;DHT22;11708;50.570;8.532;2022-09-24T08:36:05;13.50;99.90
23081;DHT22;11708;50.570;8.532;2022-09-24T08:38:31;16.40;99.90
23081;DHT22;11708;50.570;8.532;2022-09-24T08:43:45;13.80;99.90
23081;DHT22;11708;50.570;8.532;2022-09-24T08:46:24;13.90;99.90
23081;DHT22;11708;50.570;8.532;2022-09-24T08:49:15;14.00;99.90
23081;DHT22;11708;50.570;8.532;2022-09-24T08:54:44;14.10;99.90
23081;DHT22;11708;50.570;8.532;2022-09-24T08:57:13;14.20;99.90
23081;DHT22;11708;50.570;8.532;2022-09-24T08:59:43;14.30;99.90
23081;DHT22;11708;50.570;8.532;2022-09-24T09:02:31;14.30;99.90
23081;DHT22;11708;50.570;8.532;2022-09-24T09:08:00;14.50;99.90
23081;DHT22;11708;50.570;8.532;2022-09-24T09:10:32;14.50;99.90
23081;DHT22;11708;50.570;8.532;2022-09-24T09:13:15;14.60;99.90
23081;DHT22;11708;50.570;8.532;2022-09-24T09:15:48;14.70;99.90
23081;DHT22;11708;50.570;8.532;2022-09-24T09:18:24;14.80;99.90
23081;DHT22;11708;50.570;8.532;2022-09-24T09:20:50;14.90;99.90
23081;DHT22;11708;50.570;8.532;2022-09-24T09:23:21;14.90;99.90
23081;DHT22;11708;50.570;8.532;2022-09-24T09:25:53;15.10;99.90
23081;DHT22;11708;50.570;8.532;2022-09-24T09:28:20;15.20;99.90
23081;DHT22;11708;50.570;8.532;2022-09-24T09:31:06;15.30;99.90
23081;DHT22;11708;50.570;8.532;2022-09-24T09:33:50;15.30;99.90
23081;DHT22;11708;50.570;8.532;2022-09-24T09:42:26;15.50;99.90
23081;DHT22;11708;50.570;8.532;2022-09-24T09:44:54;15.60;99.90
23081;DHT22;11708;50.570;8.532;2022-09-24T09:47:25;15.60;99.90
23081;DHT22;11708;50.570;8.532;2022-09-24T09:49:56;15.70;99.90
23081;DHT22;11708;50.570;8.532;2022-09-24T09:52:29;15.80;99.90
23081;DHT22;11708;50.570;8.532;2022-09-24T09:54:56;15.80;99.90
23081;DHT22;11708;50.570;8.532;2022-09-24T09:57:24;15.90;99.90
23081;DHT22;11708;50.570;8.532;2022-09-24T09:59:53;16.00;99.90
23081;DHT22;11708;50.570;8.532;2022-09-24T10:02:30;16.20;99.90
23081;DHT22;11708;50.570;8.532;2022-09-24T10:04:59;16.30;99.90
23081;DHT22;11708;50.570;8.532;2022-09-24T10:07:25;16.50;99.90
23081;DHT22;11708;50.570;8.532;2022-09-24T10:10:01;16.60;99.90
23081;DHT22;11708;50.570;8.532;2022-09-24T10:12:27;16.80;99.90
23081;DHT22;11708;50.570;8.532;2022-09-24T10:15:01;16.90;99.90
23081;DHT22;11708;50.570;8.532;2022-09-24T10:17:37;17.00;99.90
23081;DHT22;11708;50.570;8.532;2022-09-24T10:20:08;17.20;99.90
23081;DHT22;11708;50.570;8.532;2022-09-24T10:22:49;17.40;99.90
23081;DHT22;11708;50.570;8.532;2022-09-24T10:25:19;17.50;99.90
23081;DHT22;11708;50.570;8.532;2022-09-24T10:27:45;17.70;99.90
23081;DHT22;11708;50.570;8.532;2022-09-24T10:30:13;17.80;99.90
23081;DHT22;11708;50.570;8.532;2022-09-24T10:33:00;18.00;99.90
23081;DHT22;11708;50.570;8.532;2022-09-24T10:35:29;18.20;99.90
23081;DHT22;11708;50.570;8.532;2022-09-24T10:37:57;18.40;99.90
23081;DHT22;11708;50.570;8.532;2022-09-24T10:40:37;18.50;99.90
23081;DHT22;11708;50.570;8.532;2022-09-24T10:43:19;18.80;99.90
23081;DHT22;11708;50.570;8.532;2022-09-24T10:48:20;20.60;99.90
23081;DHT22;11708;50.570;8.532;2022-09-24T10:56:38;19.90;99.90
23081;DHT22;11708;50.570;8.532;2022-09-24T11:04:25;20.70;99.90
23081;DHT22;11708;50.570;8.532;2022-09-24T11:15:23;22.20;99.90
23081;DHT22;11708;50.570;8.532;2022-09-24T11:20:38;22.30;99.90
23081;DHT22;11708;50.570;8.532;2022-09-24T11:34:24;22.50;99.90
23081;DHT22;11708;50.570;8.532;2022-09-24T11:37:15;22.50;99.90
23081;DHT22;11708;50.570;8.532;2022-09-24T11:43:04;22.40;99.90
23081;DHT22;11708;50.570;8.532;2022-09-24T11:48:25;23.00;99.90
23081;DHT22;11708;50.570;8.532;2022-09-24T11:50:58;23.40;99.90
23081;DHT22;11708;50.570;8.532;2022-09-24T11:53:47;23.80;99.90
23081;DHT22;11708;50.570;8.532;2022-09-24T11:56:43;24.30;99.90
23081;DHT22;11708;50.570;8.532;2022-09-24T11:59:35;24.60;99.90
23081;DHT22;11708;50.570;8.532;2022-09-24T12:05:02;25.20;97.60
23081;DHT22;11708;50.570;8.532;2022-09-24T12:07:51;25.50;95.50
23081;DHT22;11708;50.570;8.532;2022-09-24T12:10:32;25.70;94.40
23081;DHT22;11708;50.570;8.532;2022-09-24T12:13:18;25.80;94.50
23081;DHT22;11708;50.570;8.532;2022-09-24T12:15:53;25.70;93.80
23081;DHT22;11708;50.570;8.532;2022-09-24T12:18:28;25.50;93.50
23081;DHT22;11708;50.570;8.532;2022-09-24T12:21:07;25.40;92.70
23081;DHT22;11708;50.570;8.532;2022-09-24T12:23:38;25.10;92.60
23081;DHT22;11708;50.570;8.532;2022-09-24T12:26:06;24.80;92.90
23081;DHT22;11708;50.570;8.532;2022-09-24T12:28:50;24.30;93.40
23081;DHT22;11708;50.570;8.532;2022-09-24T12:34:44;24.40;94.10
23081;DHT22;11708;50.570;8.532;2022-09-24T12:37:19;24.40;93.60
23081;DHT22;11708;50.570;8.532;2022-09-24T12:42:16;24.20;94.10
23081;DHT22;11708;50.570;8.532;2022-09-24T12:44:51;24.20;93.10
23081;DHT22;11708;50.570;8.532;2022-09-24T12:47:23;24.10;93.40
23081;DHT22;11708;50.570;8.532;2022-09-24T12:50:00;24.00;94.00
23081;DHT22;11708;50.570;8.532;2022-09-24T12:52:40;24.10;93.70
23081;DHT22;11708;50.570;8.532;2022-09-24T12:55:19;24.40;93.70
23081;DHT22;11708;50.570;8.532;2022-09-24T12:57:54;24.90;94.20
23081;DHT22;11708;50.570;8.532;2022-09-24T13:00:49;25.50;93.50
23081;DHT22;11708;50.570;8.532;2022-09-24T13:03:36;26.10;91.50
23081;DHT22;11708;50.570;8.532;2022-09-24T13:06:48;26.20;90.80
23081;DHT22;11708;50.570;8.532;2022-09-24T13:08:49;26.20;90.90
23081;DHT22;11708;50.570;8.532;2022-09-24T13:14:04;25.90;89.30
23081;DHT22;11708;50.570;8.532;2022-09-24T13:16:30;25.60;89.30
23081;DHT22;11708;50.570;8.532;2022-09-24T13:19:03;25.30;90.30
23081;DHT22;11708;50.570;8.532;2022-09-24T13:21:31;24.90;90.70
23081;DHT22;11708;50.570;8.532;2022-09-24T13:23:57;24.60;90.80
23081;DHT22;11708;50.570;8.532;2022-09-24T13:29:04;24.00;91.60
23081;DHT22;11708;50.570;8.532;2022-09-24T13:31:36;23.90;91.50
23081;DHT22;11708;50.570;8.532;2022-09-24T13:34:12;23.80;91.90
23081;DHT22;11708;50.570;8.532;2022-09-24T13:36:46;23.80;92.50
23081;DHT22;11708;50.570;8.532;2022-09-24T13:41:46;24.40;92.20
23081;DHT22;11708;50.570;8.532;2022-09-24T13:44:21;24.80;91.30
23081;DHT22;11708;50.570;8.532;2022-09-24T13:46:52;25.30;90.70
23081;DHT22;11708;50.570;8.532;2022-09-24T13:49:20;25.70;88.90
23081;DHT22;11708;50.570;8.532;2022-09-24T13:51:59;25.70;88.60
23081;DHT22;11708;50.570;8.532;2022-09-24T13:54:35;25.70;85.90
23081;DHT22;11708;50.570;8.532;2022-09-24T13:57:12;25.50;85.60
23081;DHT22;11708;50.570;8.532;2022-09-24T13:59:40;25.30;86.00
23081;DHT22;11708;50.570;8.532;2022-09-24T14:02:23;25.20;86.70
23081;DHT22;11708;50.570;8.532;2022-09-24T14:04:55;25.00;86.70
23081;DHT22;11708;50.570;8.532;2022-09-24T14:07:22;24.80;87.60
23081;DHT22;11708;50.570;8.532;2022-09-24T14:09:48;24.60;88.80
23081;DHT22;11708;50.570;8.532;2022-09-24T14:12:17;24.50;89.70
23081;DHT22;11708;50.570;8.532;2022-09-24T14:14:51;24.40;88.80
23081;DHT22;11708;50.570;8.532;2022-09-24T14:17:18;24.20;88.60
23081;DHT22;11708;50.570;8.532;2022-09-24T14:19:44;23.90;87.90
23081;DHT22;11708;50.570;8.532;2022-09-24T14:22:20;23.50;88.50
23081;DHT22;11708;50.570;8.532;2022-09-24T14:25:07;23.10;88.60
23081;DHT22;11708;50.570;8.532;2022-09-24T14:27:39;22.60;90.10
23081;DHT22;11708;50.570;8.532;2022-09-24T14:30:16;22.10;90.50
23081;DHT22;11708;50.570;8.532;2022-09-24T14:32:42;21.90;91.40
23081;DHT22;11708;50.570;8.532;2022-09-24T14:35:17;21.70;91.70
23081;DHT22;11708;50.570;8.532;2022-09-24T14:37:51;21.40;92.60
23081;DHT22;11708;50.570;8.532;2022-09-24T14:40:18;21.30;93.30
23081;DHT22;11708;50.570;8.532;2022-09-24T14:42:53;21.20;94.10
23081;DHT22;11708;50.570;8.532;2022-09-24T14:45:25;21.10;94.70
23081;DHT22;11708;50.570;8.532;2022-09-24T14:48:01;21.00;94.80
23081;DHT22;11708;50.570;8.532;2022-09-24T14:50:37;20.80;95.50
23081;DHT22;11708;50.570;8.532;2022-09-24T14:55:45;20.60;96.10
23081;DHT22;11708;50.570;8.532;2022-09-24T15:01:13;20.40;95.20
23081;DHT22;11708;50.570;8.532;2022-09-24T15:03:47;20.30;95.30
23081;DHT22;11708;50.570;8.532;2022-09-24T15:06:21;20.30;96.10
23081;DHT22;11708;50.570;8.532;2022-09-24T15:08:53;20.10;96.20
23081;DHT22;11708;50.570;8.532;2022-09-24T15:11:19;20.00;96.50
23081;DHT22;11708;50.570;8.532;2022-09-24T15:14:19;20.00;97.00
23081;DHT22;11708;50.570;8.532;2022-09-24T15:16:50;19.90;97.30
23081;DHT22;11708;50.570;8.532;2022-09-24T15:19:23;19.90;97.90
23081;DHT22;11708;50.570;8.532;2022-09-24T15:21:53;19.90;98.50
23081;DHT22;11708;50.570;8.532;2022-09-24T15:24:19;19.80;98.90
23081;DHT22;11708;50.570;8.532;2022-09-24T15:26:48;19.80;98.90
23081;DHT22;11708;50.570;8.532;2022-09-24T15:29:23;19.70;99.20
23081;DHT22;11708;50.570;8.532;2022-09-24T15:31:50;19.70;99.40
23081;DHT22;11708;50.570;8.532;2022-09-24T15:34:16;19.70;99.30
23081;DHT22;11708;50.570;8.532;2022-09-24T15:36:42;19.60;99.50
23081;DHT22;11708;50.570;8.532;2022-09-24T15:39:09;19.60;99.90
23081;DHT22;11708;50.570;8.532;2022-09-24T15:41:35;19.50;99.90
23081;DHT22;11708;50.570;8.532;2022-09-24T15:44:00;19.50;99.90
23081;DHT22;11708;50.570;8.532;2022-09-24T15:46:26;19.50;99.90
23081;DHT22;11708;50.570;8.532;2022-09-24T15:48:51;19.40;99.90
23081;DHT22;11708;50.570;8.532;2022-09-24T15:51:19;19.40;99.90
23081;DHT22;11708;50.570;8.532;2022-09-24T15:53:46;19.40;99.90
23081;DHT22;11708;50.570;8.532;2022-09-24T15:56:12;19.30;99.90
23081;DHT22;11708;50.570;8.532;2022-09-24T15:58:38;19.30;99.90
23081;DHT22;11708;50.570;8.532;2022-09-24T16:01:04;19.20;99.90
23081;DHT22;11708;50.570;8.532;2022-09-24T16:03:31;19.20;99.90
23081;DHT22;11708;50.570;8.532;2022-09-24T16:05:58;19.20;99.90
23081;DHT22;11708;50.570;8.532;2022-09-24T16:08:24;19.10;99.90
23081;DHT22;11708;50.570;8.532;2022-09-24T16:10:50;19.20;99.90
23081;DHT22;11708;50.570;8.532;2022-09-24T16:13:17;19.10;99.90
23081;DHT22;11708;50.570;8.532;2022-09-24T16:15:43;19.30;99.90
23081;DHT22;11708;50.570;8.532;2022-09-24T16:18:14;19.10;99.90
23081;DHT22;11708;50.570;8.532;2022-09-24T16:20:40;19.10;99.90
23081;DHT22;11708;50.570;8.532;2022-09-24T16:23:11;19.00;99.90
23081;DHT22;11708;50.570;8.532;2022-09-24T16:25:38;19.00;99.90
23081;DHT22;11708;50.570;8.532;2022-09-24T16:28:04;19.10;99.90
23081;DHT22;11708;50.570;8.532;2022-09-24T16:30:29;18.80;99.90
23081;DHT22;11708;50.570;8.532;2022-09-24T16:32:55;18.90;99.90
23081;DHT22;11708;50.570;8.532;2022-09-24T16:35:20;18.70;99.90
23081;DHT22;11708;50.570;8.532;2022-09-24T16:37:46;18.70;99.90
23081;DHT22;11708;50.570;8.532;2022-09-24T16:40:11;18.70;99.90
23081;DHT22;11708;50.570;8.532;2022-09-24T16:42:37;18.70;99.90
23081;DHT22;11708;50.570;8.532;2022-09-24T16:45:02;18.60;99.90
23081;DHT22;11708;50.570;8.532;2022-09-24T16:47:28;18.50;99.90
23081;DHT22;11708;50.570;8.532;2022-09-24T16:49:54;18.60;99.90
23081;DHT22;11708;50.570;8.532;2022-09-24T16:52:19;18.90;99.90
23081;DHT22;11708;50.570;8.532;2022-09-24T16:54:45;18.60;99.90
23081;DHT22;11708;50.570;8.532;2022-09-24T16:57:10;18.50;99.90
23081;DHT22;11708;50.570;8.532;2022-09-24T16:59:37;18.30;99.90
23081;DHT22;11708;50.570;8.532;2022-09-24T17:02:03;18.30;99.90
23081;DHT22;11708;50.570;8.532;2022-09-24T17:04:28;18.20;99.90
23081;DHT22;11708;50.570;8.532;2022-09-24T17:06:55;18.40;99.90
23081;DHT22;11708;50.570;8.532;2022-09-24T17:09:21;18.20;99.90
23081;DHT22;11708;50.570;8.532;2022-09-24T17:12:05;18.10;99.90
23081;DHT22;11708;50.570;8.532;2022-09-24T17:16:57;18.00;99.90
23081;DHT22;11708;50.570;8.532;2022-09-24T17:19:23;18.00;99.90
23081;DHT22;11708;50.570;8.532;2022-09-24T17:21:48;17.90;99.90
23081;DHT22;11708;50.570;8.532;2022-09-24T17:24:16;18.10;99.90
23081;DHT22;11708;50.570;8.532;2022-09-24T17:26:42;17.80;99.90
23081;DHT22;11708;50.570;8.532;2022-09-24T17:29:08;17.80;99.90
23081;DHT22;11708;50.570;8.532;2022-09-24T17:31:34;19.20;99.90
23081;DHT22;11708;50.570;8.532;2022-09-24T17:34:01;17.70;99.90